Arnesen, Minnesota
Current Conditions -  °F | °C
As of 8:34 PM on Friday 31 Oct 2014 (Local Time) from KRRT Reporting Station
Clear Clear  
Wind Chill: 21°   Ceiling: Unl
Heat Index: 28°   Visibility: 10mi
Dew Point: 21°   Wind: 7mph
Humidity: 74%   Direction: 160°SSE
Pressure: 30.39"   Gusts: NA
Location:  48.6345°N, 95.1786°W
Report Text: KRRT 010134Z AUTO 16006KT 10SM CLR M02/M06 A3039 RMK AO2
Loading
Personal Weather Stations






























Interactive Weather Map
Tropical Storm Tracking
New forecast layout! Learn more

10-Day Weather Forecast

Advertisements
Track Severe Weather on mobile